Time;durP1;ratioP1;P1;durP2;ratioP2;P2;SDS_P1;SDS_P2;PMS_P1;PMS_P2;Temp;Humidity;BMP_temperature;BMP_pressure;BME280_temperature;BME280_humidity;BME280_pressure;Samples;Min_cycle;Max_cycle;Signal;HPM_P1;HPM_P2
2021/12/06 00:01:34;;;;;;;52.63;26.42;;;3.10;99.90;;;;;;5071211;28;20051;-67
2021/12/06 00:04:06;;;;;;;54.47;27.48;;;3.00;99.90;;;;;;5069743;28;20048;-67
2021/12/06 00:06:34;;;;;;;54.45;28.48;;;2.80;99.90;;;;;;5069762;28;20056;-67
2021/12/06 00:09:05;;;;;;;56.97;30.17;;;3.10;99.90;;;;;;5071358;28;20048;-67
2021/12/06 00:11:30;;;;;;;57.10;28.67;;;2.70;99.90;;;;;;5070185;28;20045;-67
2021/12/06 00:13:56;;;;;;;57.83;29.35;;;2.80;99.90;;;;;;5071364;28;20044;-67
2021/12/06 00:16:23;;;;;;;53.35;26.88;;;2.80;99.90;;;;;;5071272;28;20048;-67
2021/12/06 00:18:51;;;;;;;58.80;29.63;;;2.60;99.90;;;;;;5071008;28;20060;-67
2021/12/06 00:21:17;;;;;;;54.05;28.08;;;2.90;99.90;;;;;;5069469;28;20048;-67
2021/12/06 00:23:43;;;;;;;52.88;27.10;;;2.90;99.90;;;;;;5069725;28;20123;-68
2021/12/06 00:26:10;;;;;;;52.83;27.67;;;2.80;99.90;;;;;;5070781;28;20127;-67
2021/12/06 00:28:37;;;;;;;55.17;29.40;;;1.90;99.90;;;;;;5070687;28;20487;-67
2021/12/06 00:31:04;;;;;;;49.58;26.52;;;3.00;99.90;;;;;;5070524;28;20040;-68
2021/12/06 00:33:30;;;;;;;52.58;28.70;;;2.80;99.90;;;;;;5069182;28;20154;-67
2021/12/06 00:36:03;;;;;;;50.53;25.83;;;2.40;99.90;;;;;;5070494;28;20044;-67
2021/12/06 00:38:29;;;;;;;52.50;26.48;;;2.50;99.90;;;;;;5069016;28;20135;-67
2021/12/06 00:40:55;;;;;;;55.13;27.67;;;2.80;99.90;;;;;;5070321;28;20488;-68
2021/12/06 00:43:20;;;;;;;55.80;27.35;;;2.70;99.90;;;;;;5068952;28;20055;-67
2021/12/06 00:45:47;;;;;;;56.47;26.00;;;2.50;99.90;;;;;;5068942;28;20462;-67
2021/12/06 00:48:13;;;;;;;54.35;26.70;;;2.70;99.90;;;;;;5070358;28;20052;-67
2021/12/06 00:50:42;;;;;;;56.47;26.02;;;3.70;99.90;;;;;;5070828;28;20089;-67
2021/12/06 00:53:11;;;;;;;57.65;26.90;;;2.80;99.90;;;;;;5052513;28;20072;-68
2021/12/06 00:55:37;;;;;;;59.42;27.73;;;3.40;99.90;;;;;;5070388;28;20033;-68
2021/12/06 00:58:04;;;;;;;61.45;27.05;;;2.90;99.90;;;;;;5070344;28;20526;-68
2021/12/06 01:00:30;;;;;;;56.33;26.17;;;;;;;;;;5068898;28;20144;-68
2021/12/06 01:02:57;;;;;;;55.35;26.70;;;2.10;99.90;;;;;;5052521;28;20048;-68
2021/12/06 01:05:24;;;;;;;59.85;27.25;;;2.70;99.90;;;;;;5070752;28;20389;-68
2021/12/06 01:07:53;;;;;;;60.63;28.73;;;2.70;99.90;;;;;;5070355;28;20049;-68
2021/12/06 01:10:21;;;;;;;62.83;28.08;;;2.70;99.90;;;;;;5070312;28;20041;-68
2021/12/06 01:12:48;;;;;;;54.50;27.38;;;2.80;99.90;;;;;;5068727;28;20040;-68
2021/12/06 01:15:14;;;;;;;61.53;27.77;;;2.90;99.90;;;;;;5070133;28;20054;-69
2021/12/06 01:17:45;;;;;;;61.40;27.88;;;2.60;99.90;;;;;;5070251;28;20059;-68
2021/12/06 01:20:18;;;;;;;65.80;29.88;;;2.70;99.90;;;;;;5069257;28;20051;-68
2021/12/06 01:22:55;;;;;;;65.95;29.40;;;2.70;99.90;;;;;;5068825;28;20110;-68
2021/12/06 01:25:51;;;;;;;67.95;30.02;;;;;;;;;;5070033;28;20048;-68
2021/12/06 01:31:07;;;;;;;71.82;31.10;;;2.70;99.90;;;;;;5069145;28;20051;-68
2021/12/06 01:33:40;;;;;;;74.40;30.40;;;2.60;99.90;;;;;;5068623;28;20127;-68
2021/12/06 01:42:00;;;;;;;85.80;33.65;;;3.00;99.90;;;;;;5039496;28;20048;-68
2021/12/06 01:44:38;;;;;;;74.18;30.15;;;2.60;99.90;;;;;;5072497;28;20060;-68
2021/12/06 01:47:22;;;;;;;87.95;31.83;;;2.50;99.90;;;;;;5073573;28;20109;-68
2021/12/06 01:49:59;;;;;;;74.47;30.08;;;2.60;99.90;;;;;;5072177;28;20488;-68
2021/12/06 01:52:28;;;;;;;72.32;29.60;;;2.50;99.90;;;;;;5072222;28;20053;-68
2021/12/06 01:54:56;;;;;;;74.15;30.63;;;2.50;99.90;;;;;;5071831;28;20052;-68
2021/12/06 01:57:23;;;;;;;81.85;31.80;;;2.50;99.90;;;;;;5073525;28;20082;-68
2021/12/06 01:59:49;;;;;;;85.05;31.67;;;;;;;;;;5073342;28;20090;-68
2021/12/06 02:02:15;;;;;;;85.55;32.65;;;2.30;99.90;;;;;;5072170;28;20080;-68
2021/12/06 02:04:43;;;;;;;84.30;31.60;;;2.60;99.90;;;;;;5073101;28;20044;-68
2021/12/06 02:07:15;;;;;;;85.45;32.90;;;2.10;99.90;;;;;;5072503;28;20052;-74
2021/12/06 02:09:46;;;;;;;86.80;33.03;;;3.00;99.90;;;;;;5073222;28;20047;-73
2021/12/06 02:12:12;;;;;;;88.88;33.05;;;;;;;;;;5073541;28;20048;-73
2021/12/06 02:17:23;;;;;;;74.95;30.70;;;2.60;99.90;;;;;;5073397;28;20036;-74
2021/12/06 02:20:02;;;;;;;87.40;31.48;;;2.60;99.90;;;;;;5055361;28;20052;-74
2021/12/06 02:22:30;;;;;;;84.78;31.20;;;2.00;99.90;;;;;;5071963;28;20040;-74
2021/12/06 02:24:57;;;;;;;86.85;33.55;;;2.60;99.90;;;;;;5054956;28;20079;-73
2021/12/06 02:27:25;;;;;;;86.90;33.15;;;2.90;99.90;;;;;;5071531;28;20056;-73
2021/12/06 02:29:53;;;;;;;86.72;32.33;;;3.20;99.90;;;;;;5072656;28;20048;-73
2021/12/06 02:32:19;;;;;;;81.18;32.17;;;2.80;99.90;;;;;;5072667;28;20041;-73
2021/12/06 02:34:49;;;;;;;84.22;33.63;;;2.70;99.90;;;;;;5072633;28;20080;-74
2021/12/06 02:37:20;;;;;;;81.75;33.55;;;2.70;99.90;;;;;;5072553;28;20048;-74
2021/12/06 02:39:46;;;;;;;94.75;33.58;;;;;;;;;;5072637;28;20047;-73
2021/12/06 02:42:16;;;;;;;86.70;33.45;;;2.60;99.90;;;;;;5071278;28;20056;-73
2021/12/06 02:44:44;;;;;;;94.60;34.97;;;2.20;99.90;;;;;;5072066;28;20049;-74
2021/12/06 02:47:11;;;;;;;93.28;33.65;;;2.50;99.90;;;;;;5072358;28;20072;-73
2021/12/06 02:49:37;;;;;;;92.43;34.80;;;2.80;99.90;;;;;;5072666;28;20041;-74
2021/12/06 02:52:04;;;;;;;94.45;33.28;;;2.70;99.90;;;;;;5072644;28;20077;-74
2021/12/06 02:54:31;;;;;;;92.78;33.15;;;3.00;99.90;;;;;;5072511;28;20162;-74
2021/12/06 02:57:19;;;;;;;97.85;35.33;;;2.00;99.90;;;;;;5072269;28;20048;-74
2021/12/06 02:59:46;;;;;;;89.70;32.42;;;3.30;99.90;;;;;;5072375;28;20044;-72
2021/12/06 03:02:16;;;;;;;100.03;35.47;;;1.60;99.90;;;;;;5072517;28;20040;-72
2021/12/06 03:04:43;;;;;;;100.20;37.75;;;2.80;99.90;;;;;;5072306;28;20056;-72
2021/12/06 03:07:09;;;;;;;106.45;37.42;;;2.60;99.90;;;;;;5070825;28;20052;-72
2021/12/06 03:09:38;;;;;;;105.20;36.47;;;2.60;99.90;;;;;;5072030;28;20044;-72
2021/12/06 03:12:04;;;;;;;108.18;35.03;;;;;;;;;;5071078;28;20052;-72
2021/12/06 03:14:36;;;;;;;100.32;36.63;;;2.70;99.90;;;;;;5070695;28;20048;-72
2021/12/06 03:17:07;;;;;;;100.22;35.10;;;2.60;99.90;;;;;;5072165;28;20167;-72
2021/12/06 03:19:35;;;;;;;112.50;38.75;;;2.90;99.90;;;;;;5072011;28;20044;-67
2021/12/06 03:22:01;;;;;;;110.93;38.70;;;2.50;99.90;;;;;;5071823;28;20043;-67
2021/12/06 03:24:27;;;;;;;108.72;38.08;;;;;;;;;;5070808;28;20048;-67
2021/12/06 03:26:54;;;;;;;106.60;36.85;;;2.60;99.90;;;;;;5070577;28;20424;-67
2021/12/06 03:29:20;;;;;;;109.55;36.95;;;3.30;99.90;;;;;;5070591;28;20054;-66
2021/12/06 03:31:48;;;;;;;114.38;37.85;;;2.50;99.90;;;;;;5071738;28;20043;-69
2021/12/06 03:34:15;;;;;;;108.07;36.20;;;2.70;99.90;;;;;;5071614;28;20132;-66
2021/12/06 03:36:41;;;;;;;116.05;40.08;;;2.70;99.90;;;;;;5071545;28;20075;-67
2021/12/06 03:39:12;;;;;;;112.38;37.15;;;2.70;99.90;;;;;;5070200;28;20052;-67
2021/12/06 03:41:39;;;;;;;110.70;37.67;;;2.60;99.90;;;;;;5071931;28;20044;-66
2021/12/06 03:44:06;;;;;;;112.78;38.22;;;3.00;99.90;;;;;;5071675;28;20080;-67
2021/12/06 03:46:33;;;;;;;117.15;38.95;;;2.90;99.90;;;;;;5070255;28;20052;-67
2021/12/06 03:48:59;;;;;;;114.85;38.55;;;;;;;;;;5070069;28;20803;-67
2021/12/06 03:51:31;;;;;;;113.22;39.42;;;2.70;99.90;;;;;;5071420;28;20048;-66
2021/12/06 03:53:57;;;;;;;122.00;39.13;;;;;;;;;;5071341;28;20098;-67
2021/12/06 03:56:25;;;;;;;116.78;38.80;;;;;;;;;;5070730;28;20094;-67
2021/12/06 03:58:51;;;;;;;112.80;38.53;;;2.50;99.90;;;;;;5071390;28;20064;-67
2021/12/06 04:01:17;;;;;;;124.70;39.55;;;;;;;;;;5071186;28;20087;-67
2021/12/06 04:03:43;;;;;;;124.18;42.05;;;2.50;99.90;;;;;;5070909;28;20486;-67
2021/12/06 04:06:11;;;;;;;119.90;39.13;;;1.60;99.90;;;;;;5069810;28;20095;-67
2021/12/06 04:08:36;;;;;;;143.13;42.20;;;3.00;99.90;;;;;;5069812;28;20460;-66
2021/12/06 04:11:02;;;;;;;140.57;43.03;;;2.50;99.90;;;;;;5071032;28;20052;-67
2021/12/06 04:13:28;;;;;;;132.82;40.83;;;2.80;99.90;;;;;;5069669;28;20037;-67
2021/12/06 04:15:54;;;;;;;137.10;41.63;;;;;;;;;;5070868;28;20040;-67
2021/12/06 04:18:20;;;;;;;135.82;40.53;;;2.80;99.90;;;;;;5071081;28;20175;-67
2021/12/06 04:20:46;;;;;;;137.32;42.78;;;2.10;99.90;;;;;;5069486;28;20044;-67
2021/12/06 04:23:15;;;;;;;132.77;42.08;;;2.70;99.90;;;;;;5071066;28;20412;-67
2021/12/06 04:25:44;;;;;;;118.55;39.63;;;2.50;99.90;;;;;;5070828;28;20127;-67
2021/12/06 04:28:13;;;;;;;129.82;39.70;;;3.30;99.90;;;;;;5071022;28;20045;-67
2021/12/06 04:30:40;;;;;;;124.13;40.70;;;;;;;;;;5070746;28;20060;-66
2021/12/06 04:33:06;;;;;;;128.55;41.78;;;2.10;99.90;;;;;;5069695;28;20090;-66
2021/12/06 04:35:37;;;;;;;144.32;42.03;;;2.80;99.90;;;;;;5070785;28;20050;-66
2021/12/06 04:38:04;;;;;;;128.05;40.13;;;2.00;99.90;;;;;;5069683;28;20438;-67
2021/12/06 04:40:31;;;;;;;134.68;40.55;;;;;;;;;;5070709;28;20587;-67
2021/12/06 04:42:57;;;;;;;146.80;44.03;;;2.70;99.90;;;;;;5070533;28;20056;-66
2021/12/06 04:45:23;;;;;;;130.13;42.13;;;3.70;99.90;;;;;;5070517;28;20048;-66
2021/12/06 04:47:50;;;;;;;122.18;39.63;;;;;;;;;;5070755;28;20044;-66
2021/12/06 04:50:18;;;;;;;136.82;41.60;;;2.70;99.90;;;;;;5070493;28;20124;-67
2021/12/06 04:52:46;;;;;;;129.98;40.67;;;2.70;99.90;;;;;;5052450;28;20099;-67
2021/12/06 04:55:24;;;;;;;138.23;40.47;;;2.50;99.90;;;;;;5068997;28;20496;-67
2021/12/06 04:57:50;;;;;;;132.55;39.47;;;3.00;99.90;;;;;;5068959;28;20088;-66
2021/12/06 05:00:16;;;;;;;141.77;43.45;;;2.90;99.90;;;;;;5070438;28;20088;-67
2021/12/06 05:02:43;;;;;;;127.10;38.85;;;2.90;99.90;;;;;;5069083;28;20668;-66
2021/12/06 05:05:19;;;;;;;121.35;38.92;;;3.00;99.90;;;;;;5070245;28;20113;-67
2021/12/06 05:07:56;;;;;;;118.47;39.08;;;3.70;99.90;;;;;;5069921;28;20047;-67
2021/12/06 05:10:22;;;;;;;127.93;39.63;;;1.70;99.90;;;;;;5074255;28;20041;-67
2021/12/06 05:12:50;;;;;;;126.30;40.30;;;2.60;99.90;;;;;;5074785;28;20151;-67
2021/12/06 05:15:16;;;;;;;127.55;41.83;;;2.80;99.90;;;;;;5056321;28;20047;-67
2021/12/06 05:17:44;;;;;;;125.22;42.00;;;2.50;99.90;;;;;;5072856;28;20055;-67
2021/12/06 05:20:12;;;;;;;122.80;41.40;;;2.80;99.90;;;;;;5074156;28;20122;-67
2021/12/06 05:22:39;;;;;;;134.82;43.53;;;2.70;99.90;;;;;;5074064;28;20048;-67
2021/12/06 05:25:05;;;;;;;142.30;46.15;;;2.60;99.90;;;;;;5072588;28;20109;-67
2021/12/06 05:27:32;;;;;;;123.65;40.05;;;;;;;;;;5072500;28;20119;-67
2021/12/06 05:30:01;;;;;;;123.22;40.13;;;2.80;99.90;;;;;;5072516;28;20174;-67
2021/12/06 05:32:31;;;;;;;126.78;40.05;;;2.10;99.90;;;;;;5072514;28;20115;-67
2021/12/06 05:35:05;;;;;;;123.10;40.95;;;2.60;99.90;;;;;;5073727;28;20499;-68
2021/12/06 05:37:32;;;;;;;118.18;39.83;;;2.80;99.90;;;;;;5072029;28;20496;-67
2021/12/06 05:39:58;;;;;;;117.32;40.90;;;2.40;99.90;;;;;;5055544;28;20105;-67
2021/12/06 05:42:26;;;;;;;107.53;41.10;;;;;;;;;;5071838;28;20064;-67
2021/12/06 05:44:52;;;;;;;103.90;40.67;;;;;;;;;;5073232;28;20321;-67
2021/12/06 05:47:18;;;;;;;105.28;37.63;;;;;;;;;;5071982;28;20154;-67
2021/12/06 05:49:44;;;;;;;122.50;42.70;;;3.40;99.90;;;;;;5073786;28;20044;-67
2021/12/06 05:52:10;;;;;;;114.75;39.33;;;2.70;99.90;;;;;;5073742;28;20531;-67
2021/12/06 05:54:40;;;;;;;105.93;38.03;;;;;;;;;;5073963;28;20047;-67
2021/12/06 05:57:07;;;;;;;106.88;38.28;;;2.70;99.90;;;;;;5073611;28;20042;-67
2021/12/06 05:59:34;;;;;;;114.03;40.20;;;2.00;99.90;;;;;;5073533;28;20070;-67
2021/12/06 06:02:00;;;;;;;109.28;39.63;;;2.70;99.90;;;;;;5072296;28;20086;-67
2021/12/06 06:04:26;;;;;;;102.90;38.58;;;;;;;;;;5073180;28;20041;-67
2021/12/06 06:06:51;;;;;;;118.22;40.45;;;2.70;99.90;;;;;;5071774;28;20056;-67
2021/12/06 06:09:18;;;;;;;114.38;39.97;;;;;;;;;;5073207;28;20565;-67
2021/12/06 06:11:44;;;;;;;103.88;38.05;;;2.80;99.90;;;;;;5072965;28;20044;-67
2021/12/06 06:14:10;;;;;;;99.47;35.60;;;;;;;;;;5073106;28;20044;-67
2021/12/06 06:16:46;;;;;;;106.25;38.20;;;3.70;99.90;;;;;;5073138;28;20049;-67
2021/12/06 06:19:13;;;;;;;102.68;37.00;;;;;;;;;;5072445;28;20041;-67
2021/12/06 06:21:39;;;;;;;102.20;37.35;;;;;;;;;;5054956;28;20040;-67
2021/12/06 06:24:09;;;;;;;108.18;37.53;;;;;;;;;;5072337;28;20438;-67
2021/12/06 06:26:35;;;;;;;105.43;39.60;;;;;;;;;;5071871;28;20055;-67
2021/12/06 06:29:01;;;;;;;111.70;40.97;;;3.30;99.90;;;;;;5072936;28;20492;-67
2021/12/06 06:31:27;;;;;;;99.57;35.97;;;1.60;99.90;;;;;;5072035;28;20116;-67
2021/12/06 06:33:53;;;;;;;96.68;36.85;;;3.00;99.90;;;;;;5073057;28;20040;-67
2021/12/06 06:36:19;;;;;;;96.60;35.00;;;;;;;;;;5072039;28;20053;-67
2021/12/06 06:38:45;;;;;;;99.40;38.72;;;2.60;99.90;;;;;;5072796;28;20508;-67
2021/12/06 06:41:11;;;;;;;97.38;34.42;;;2.80;99.90;;;;;;5071345;28;20083;-67
2021/12/06 06:43:37;;;;;;;93.18;34.50;;;2.40;99.90;;;;;;5071127;28;20404;-67
2021/12/06 06:46:04;;;;;;;101.03;38.33;;;2.60;99.90;;;;;;5071174;28;20058;-67
2021/12/06 06:48:30;;;;;;;92.22;35.05;;;2.40;99.90;;;;;;5071598;28;20074;-68
2021/12/06 06:50:56;;;;;;;91.65;33.92;;;;;;;;;;5088032;28;20064;-67
2021/12/06 06:53:22;;;;;;;85.43;31.35;;;;;;;;;;5072646;28;20118;-67
2021/12/06 06:55:48;;;;;;;87.13;32.05;;;2.90;99.90;;;;;;5072569;28;20044;-67
2021/12/06 06:58:14;;;;;;;82.10;31.13;;;;;;;;;;5071548;28;20522;-67
2021/12/06 07:00:40;;;;;;;89.68;33.55;;;2.60;99.90;;;;;;5072533;28;20044;-67
2021/12/06 07:03:08;;;;;;;91.18;34.13;;;2.20;99.90;;;;;;5071627;28;20055;-67
2021/12/06 07:05:35;;;;;;;99.13;35.53;;;2.80;99.90;;;;;;5072658;28;20056;-67
2021/12/06 07:08:00;;;;;;;87.18;32.80;;;2.40;99.90;;;;;;5072639;28;20032;-67
2021/12/06 07:10:26;;;;;;;85.60;32.80;;;1.70;99.90;;;;;;5072640;28;20094;-67
2021/12/06 07:12:54;;;;;;;75.45;30.13;;;2.70;99.90;;;;;;5072663;28;20052;-68
2021/12/06 07:15:24;;;;;;;69.07;28.65;;;2.60;99.90;;;;;;5070866;28;20504;-68
2021/12/06 07:17:55;;;;;;;70.97;28.42;;;2.80;99.90;;;;;;5072594;28;20511;-68
2021/12/06 07:20:21;;;;;;;73.55;29.00;;;2.50;99.90;;;;;;5071333;28;20189;-68
2021/12/06 07:22:48;;;;;;;75.78;29.73;;;2.60;99.90;;;;;;5070774;28;20119;-68
2021/12/06 07:25:16;;;;;;;72.97;29.58;;;2.60;99.90;;;;;;5072096;28;20048;-68
2021/12/06 07:27:44;;;;;;;74.28;29.73;;;2.50;99.90;;;;;;5071963;28;20408;-69
2021/12/06 07:30:11;;;;;;;74.50;29.67;;;2.50;99.90;;;;;;5072193;28;20051;-68
2021/12/06 07:32:37;;;;;;;71.50;29.70;;;2.90;99.90;;;;;;5069550;28;20078;-69
2021/12/06 07:35:04;;;;;;;70.60;28.65;;;2.20;99.90;;;;;;5071597;28;20040;-69
2021/12/06 07:37:30;;;;;;;68.03;27.88;;;2.50;99.90;;;;;;5086999;28;20056;-74
2021/12/06 07:39:56;;;;;;;69.38;28.30;;;2.60;99.90;;;;;;5071512;28;20040;-74
2021/12/06 07:42:24;;;;;;;68.70;28.23;;;2.60;99.90;;;;;;5071054;28;20377;-73
2021/12/06 07:44:51;;;;;;;61.38;25.52;;;;;;;;;;5070187;28;20059;-74
2021/12/06 07:47:17;;;;;;;63.88;27.48;;;1.90;99.90;;;;;;5069633;28;20058;-74
2021/12/06 07:49:44;;;;;;;67.95;27.92;;;3.00;99.90;;;;;;5070168;28;20123;-74
2021/12/06 07:52:10;;;;;;;66.10;28.13;;;2.50;99.90;;;;;;5049796;28;20548;-74
2021/12/06 07:54:38;;;;;;;68.93;28.90;;;1.90;99.90;;;;;;5051322;28;20082;-74
2021/12/06 07:57:05;;;;;;;68.65;26.98;;;2.70;99.90;;;;;;5051287;28;20048;-73
2021/12/06 07:59:31;;;;;;;69.80;28.08;;;2.30;99.90;;;;;;5066716;28;20175;-74
2021/12/06 08:01:57;;;;;;;65.45;27.17;;;2.50;99.90;;;;;;5051267;28;20512;-74
2021/12/06 08:04:23;;;;;;;72.28;28.92;;;;;;;;;;5066843;28;20597;-73
2021/12/06 08:06:49;;;;;;;67.28;29.08;;;;;;;;;;5067216;28;20048;-69
2021/12/06 08:09:15;;;;;;;70.60;28.40;;;;;;;;;;5057892;28;20105;-68
2021/12/06 08:11:44;;;;;;;60.95;26.63;;;2.50;99.90;;;;;;5068933;28;20052;-68
2021/12/06 08:14:10;;;;;;;59.90;26.27;;;2.40;99.90;;;;;;5069715;28;20063;-69
2021/12/06 08:16:40;;;;;;;65.90;27.08;;;3.90;99.90;;;;;;5069613;28;20044;-69
2021/12/06 08:19:07;;;;;;;58.80;24.83;;;2.50;99.90;;;;;;5069332;28;20123;-68
2021/12/06 08:21:34;;;;;;;65.30;26.95;;;0.30;99.90;;;;;;5068969;28;20055;-68
2021/12/06 08:24:02;;;;;;;68.20;27.25;;;2.60;99.90;;;;;;5050494;28;20049;-69
2021/12/06 08:26:31;;;;;;;68.13;26.90;;;3.40;99.90;;;;;;5048744;28;20497;-68
2021/12/06 08:28:58;;;;;;;63.53;27.38;;;2.60;99.90;;;;;;5048338;28;20057;-68
2021/12/06 08:31:27;;;;;;;72.60;27.67;;;2.50;99.90;;;;;;5050056;28;20040;-68
2021/12/06 08:33:53;;;;;;;77.38;29.20;;;;;;;;;;5048190;28;20047;-68
2021/12/06 08:36:20;;;;;;;79.70;28.88;;;2.60;99.90;;;;;;5050021;28;20060;-68
2021/12/06 08:38:47;;;;;;;83.07;31.15;;;2.60;99.90;;;;;;5050106;28;20045;-68
2021/12/06 08:41:18;;;;;;;94.70;35.28;;;3.30;99.90;;;;;;5048371;28;20033;-68
2021/12/06 08:43:46;;;;;;;111.50;37.30;;;2.60;99.90;;;;;;5048458;28;20057;-68
2021/12/06 08:46:20;;;;;;;116.88;41.63;;;2.70;99.90;;;;;;5047970;28;20053;-68
2021/12/06 08:48:49;;;;;;;129.85;43.80;;;3.30;99.90;;;;;;5048988;28;20102;-68
2021/12/06 08:51:19;;;;;;;119.70;44.90;;;2.50;99.90;;;;;;5048088;28;20048;-68
2021/12/06 08:53:47;;;;;;;127.07;44.78;;;2.30;99.90;;;;;;5064734;28;20051;-68
2021/12/06 08:56:13;;;;;;;126.95;44.67;;;2.60;99.90;;;;;;5051022;28;20044;-69
2021/12/06 08:58:41;;;;;;;135.20;45.78;;;2.70;99.90;;;;;;5068154;28;20044;-68
2021/12/06 09:01:07;;;;;;;96.03;36.70;;;2.60;99.90;;;;;;5069496;28;20781;-74
2021/12/06 09:03:35;;;;;;;74.82;29.73;;;2.30;99.90;;;;;;5069969;28;20048;-74
2021/12/06 09:06:04;;;;;;;76.85;30.42;;;1.90;99.90;;;;;;5069465;28;20059;-74
2021/12/06 09:08:31;;;;;;;70.53;29.35;;;2.40;99.90;;;;;;5068403;28;20048;-74
2021/12/06 09:10:59;;;;;;;72.30;30.52;;;2.50;99.90;;;;;;5051175;28;20092;-74
2021/12/06 09:13:28;;;;;;;67.55;27.30;;;2.60;99.90;;;;;;5069753;28;20040;-74
2021/12/06 09:15:56;;;;;;;73.50;28.48;;;2.50;99.90;;;;;;5069300;28;20220;-74
2021/12/06 09:18:23;;;;;;;63.85;27.15;;;3.00;99.90;;;;;;5069687;28;20048;-74
2021/12/06 09:20:51;;;;;;;58.72;23.98;;;2.50;99.90;;;;;;5069607;28;20053;-73
2021/12/06 09:23:17;;;;;;;54.22;23.58;;;2.10;99.90;;;;;;5068269;28;20048;-74
2021/12/06 09:25:46;;;;;;;52.80;23.48;;;3.50;99.90;;;;;;5069751;28;20052;-74
2021/12/06 09:28:14;;;;;;;58.45;23.83;;;2.40;99.90;;;;;;5069423;28;20041;-74
2021/12/06 09:30:41;;;;;;;52.63;22.58;;;3.10;99.90;;;;;;5068164;28;20482;-74
2021/12/06 09:33:11;;;;;;;55.42;24.08;;;2.50;99.90;;;;;;5069480;28;20040;-74
2021/12/06 09:35:40;;;;;;;65.05;25.65;;;2.50;99.90;;;;;;5067771;28;20037;-74
2021/12/06 09:38:07;;;;;;;73.03;27.00;;;2.60;99.90;;;;;;5069129;28;20403;-74
2021/12/06 09:40:37;;;;;;;67.72;25.88;;;2.70;99.90;;;;;;5069432;28;20407;-75
2021/12/06 09:43:05;;;;;;;66.32;25.48;;;2.50;99.90;;;;;;5067132;28;20052;-74
2021/12/06 09:45:32;;;;;;;61.75;23.40;;;3.20;99.90;;;;;;5065286;28;20540;-74
2021/12/06 09:48:00;;;;;;;53.50;22.67;;;2.70;99.90;;;;;;5068817;28;20059;-68
2021/12/06 09:50:31;;;;;;;50.10;22.95;;;2.70;99.90;;;;;;5069411;28;20102;-68
2021/12/06 09:53:07;;;;;;;51.60;22.20;;;2.80;99.90;;;;;;5068381;28;20048;-69
2021/12/06 09:55:35;;;;;;;51.45;22.58;;;2.80;99.90;;;;;;5067598;28;20052;-73
2021/12/06 09:58:02;;;;;;;45.40;21.80;;;3.00;99.90;;;;;;5071105;28;20056;-73
2021/12/06 10:00:34;;;;;;;47.05;20.67;;;3.10;99.90;;;;;;5072896;28;20044;-73
2021/12/06 10:03:00;;;;;;;50.95;23.05;;;;;;;;;;5071135;28;20048;-73
2021/12/06 10:05:29;;;;;;;42.03;20.80;;;2.80;99.90;;;;;;5073092;28;20097;-74
2021/12/06 10:07:56;;;;;;;46.85;20.40;;;2.90;99.90;;;;;;5070619;28;20510;-73
2021/12/06 10:10:25;;;;;;;41.20;19.08;;;3.00;99.90;;;;;;5072500;28;20434;-74
2021/12/06 10:12:52;;;;;;;41.28;19.05;;;;;;;;;;5072310;28;20044;-68
2021/12/06 10:15:19;;;;;;;42.40;20.10;;;2.70;99.90;;;;;;5072576;28;20507;-69
2021/12/06 10:17:45;;;;;;;40.17;19.45;;;;;;;;;;5072625;28;20052;-68
2021/12/06 10:20:11;;;;;;;40.70;19.50;;;3.30;99.90;;;;;;5070854;28;20043;-68
2021/12/06 10:22:37;;;;;;;39.78;19.23;;;2.50;99.90;;;;;;5070608;28;20086;-68
2021/12/06 10:25:05;;;;;;;40.15;19.42;;;2.70;99.90;;;;;;5071979;28;20044;-68
2021/12/06 10:27:31;;;;;;;42.65;21.48;;;3.00;99.90;;;;;;5071132;28;20378;-69
2021/12/06 10:30:02;;;;;;;41.30;21.10;;;3.40;99.90;;;;;;5070837;28;20048;-69
2021/12/06 10:32:34;;;;;;;38.67;20.70;;;3.30;99.90;;;;;;5072424;28;20131;-69
2021/12/06 10:35:08;;;;;;;40.45;21.38;;;2.90;99.90;;;;;;5071164;28;20123;-69
2021/12/06 10:37:39;;;;;;;38.30;20.55;;;4.90;99.90;;;;;;5071101;28;20132;-69
2021/12/06 10:40:09;;;;;;;40.42;21.00;;;3.20;99.90;;;;;;5072181;28;20052;-68
2021/12/06 10:42:42;;;;;;;37.60;21.63;;;3.70;99.90;;;;;;5072223;28;20060;-68
2021/12/06 10:45:12;;;;;;;42.88;22.50;;;3.40;99.90;;;;;;5070627;28;20045;-69
2021/12/06 10:47:38;;;;;;;47.25;21.45;;;3.50;99.90;;;;;;5070292;28;20076;-69
2021/12/06 10:50:17;;;;;;;46.45;22.40;;;3.30;99.90;;;;;;5071935;28;20048;-67
2021/12/06 10:52:52;;;;;;;44.60;23.23;;;3.30;99.90;;;;;;5072068;28;20362;-68
2021/12/06 10:55:20;;;;;;;40.50;21.20;;;3.40;99.90;;;;;;5070205;28;20056;-68
2021/12/06 10:57:54;;;;;;;50.53;25.60;;;3.20;99.90;;;;;;5070969;28;20060;-68
2021/12/06 11:00:44;;;;;;;45.55;24.10;;;3.30;99.90;;;;;;5070873;28;20131;-68
2021/12/06 11:03:28;;;;;;;47.10;24.15;;;3.20;99.90;;;;;;5071660;28;20048;-68
2021/12/06 11:05:59;;;;;;;49.67;25.55;;;2.50;99.90;;;;;;5069863;28;20049;-68
2021/12/06 11:08:25;;;;;;;50.83;24.88;;;3.30;99.90;;;;;;5070375;28;20048;-68
2021/12/06 11:10:58;;;;;;;51.75;25.98;;;3.30;99.90;;;;;;5071156;28;20405;-68
2021/12/06 11:13:30;;;;;;;56.65;29.58;;;3.40;99.90;;;;;;5086764;28;20096;-68
2021/12/06 11:16:17;;;;;;;44.53;24.33;;;3.20;99.90;;;;;;5069232;28;20088;-68
2021/12/06 11:18:46;;;;;;;47.63;22.75;;;3.90;99.90;;;;;;5069917;28;20072;-68
2021/12/06 11:21:50;;;;;;;43.28;24.23;;;3.40;99.90;;;;;;5069497;28;20134;-68
2021/12/06 11:24:21;;;;;;;51.38;25.20;;;4.10;99.90;;;;;;5028499;28;20888;-68
2021/12/06 11:26:55;;;;;;;46.85;25.60;;;3.50;99.90;;;;;;5028819;28;20127;-68
2021/12/06 11:29:41;;;;;;;42.83;21.98;;;3.00;99.90;;;;;;5011410;28;20041;-68
2021/12/06 11:32:17;;;;;;;41.72;22.27;;;3.40;99.90;;;;;;5017591;28;20046;-68
2021/12/06 11:34:58;;;;;;;43.03;22.08;;;3.30;99.90;;;;;;5009152;28;20050;-68
2021/12/06 11:37:30;;;;;;;40.78;21.67;;;3.30;99.90;;;;;;4992850;28;20050;-69
2021/12/06 11:40:25;;;;;;;48.20;23.92;;;3.10;99.90;;;;;;5018139;28;20057;-68
2021/12/06 11:43:03;;;;;;;46.38;23.80;;;3.40;99.90;;;;;;5017785;28;20417;-68
2021/12/06 11:45:46;;;;;;;39.95;20.52;;;3.30;99.90;;;;;;5006798;28;20759;-68
2021/12/06 11:48:14;;;;;;;47.88;26.05;;;3.30;99.90;;;;;;5025090;28;20065;-68
2021/12/06 11:50:49;;;;;;;44.78;21.17;;;3.40;99.90;;;;;;5011664;28;20111;-68
2021/12/06 11:53:18;;;;;;;45.60;22.45;;;4.00;99.90;;;;;;5026038;28;20060;-68
2021/12/06 11:55:54;;;;;;;47.45;24.05;;;3.70;99.90;;;;;;5027832;28;20056;-68
2021/12/06 11:58:26;;;;;;;46.95;26.17;;;3.10;99.90;;;;;;5030229;28;20136;-68
2021/12/06 12:01:18;;;;;;;54.17;26.88;;;3.60;99.90;;;;;;5050269;28;20059;-68
2021/12/06 12:03:47;;;;;;;51.22;26.38;;;3.50;99.90;;;;;;5032875;28;20088;-68
2021/12/06 12:06:30;;;;;;;47.53;25.25;;;3.60;99.90;;;;;;5048669;28;20501;-68
2021/12/06 12:09:13;;;;;;;49.30;25.98;;;3.70;99.90;;;;;;5048974;28;20047;-68
2021/12/06 12:11:53;;;;;;;52.50;27.17;;;3.80;99.90;;;;;;5059789;28;20048;-71
2021/12/06 12:14:55;;;;;;;54.25;29.60;;;3.80;99.90;;;;;;5069577;28;20055;-72
2021/12/06 12:17:23;;;;;;;48.70;28.65;;;3.90;99.90;;;;;;5066642;28;20447;-72
2021/12/06 12:19:52;;;;;;;50.65;25.27;;;3.90;99.90;;;;;;5070378;28;20127;-71
2021/12/06 12:22:19;;;;;;;48.40;27.52;;;3.80;99.90;;;;;;5069906;28;20049;-72
2021/12/06 12:24:50;;;;;;;51.40;28.23;;;3.80;99.90;;;;;;5069286;28;20063;-72
2021/12/06 12:27:28;;;;;;;56.22;31.83;;;4.00;99.90;;;;;;5068347;28;20408;-72
2021/12/06 12:29:59;;;;;;;58.38;31.60;;;3.90;99.90;;;;;;5068593;28;20048;-72
2021/12/06 12:32:27;;;;;;;56.95;29.15;;;4.00;99.90;;;;;;5068718;28;20048;-72
2021/12/06 12:34:57;;;;;;;58.00;32.83;;;4.10;99.90;;;;;;5068802;28;20083;-71
2021/12/06 12:37:23;;;;;;;56.53;29.20;;;4.10;99.90;;;;;;5068814;28;20117;-71
2021/12/06 12:39:59;;;;;;;55.70;34.20;;;3.90;99.90;;;;;;5069106;28;20451;-71
2021/12/06 12:42:26;;;;;;;56.42;33.45;;;4.10;99.90;;;;;;5069362;28;20065;-71
2021/12/06 12:44:56;;;;;;;58.13;31.55;;;4.40;99.90;;;;;;5068763;28;20404;-72
2021/12/06 12:47:26;;;;;;;55.22;33.40;;;4.00;99.90;;;;;;5069858;28;20060;-73
2021/12/06 12:49:54;;;;;;;54.72;32.42;;;5.00;99.90;;;;;;5068258;28;20127;-74
2021/12/06 12:52:37;;;;;;;62.15;34.45;;;4.00;99.90;;;;;;5069541;28;20122;-71
2021/12/06 12:55:22;;;;;;;59.90;31.98;;;4.10;99.90;;;;;;5068233;28;20127;-67
2021/12/06 12:57:49;;;;;;;57.35;35.00;;;4.10;99.90;;;;;;5069871;28;20113;-68
2021/12/06 13:00:24;;;;;;;61.83;36.38;;;4.00;99.90;;;;;;5052076;28;20500;-67
2021/12/06 13:02:50;;;;;;;58.00;32.72;;;;;;;;;;5068432;28;20396;-67
2021/12/06 13:05:24;;;;;;;60.38;33.58;;;4.10;99.90;;;;;;5051975;28;20399;-69
2021/12/06 13:08:02;;;;;;;63.28;37.67;;;4.10;99.90;;;;;;5068443;28;20064;-67